Terminal Aerodrome Forecast
Issued by NWS

Current Version | Previous Version | Text Only | Print | Product List | Glossary Off
Versions: 1 2 3 4 5 6 7 8 9 10 11 12 13 14 15 16 17 18 19 20 21 22 23 24

547
FTUS41 KILN 300522
TAFLUK
TAF
KLUK 300522Z 3006/3106 00000KT 4SM BR SCT010
      TEMPO 3008/3012 1SM BR SCT001
     FM301300 24006KT P6SM SCT035
     FM301700 24006KT P6SM VCTS SCT040CB BKN250
     FM310000 24002KT P6SM FEW040=

USA.gov is the U.S. government's official web portal to all federal, state and local government web resources and services.